KRFD/RFD METAR and TAF weather

Enter ICAO airport designator
Station Type Date Time Source
KRFD METAR 2020/07/13 12:54 UTC NOAA

KRFD 131254Z 00000KT 10SM FEW060 SCT250 21/17 A3004 RMK AO2 SLP167 T02060172


Station Type Date Time Source
KRFD Decoded METAR 2020/07/13 12:54 UTC NOAA

GREATER ROCKFORD AIRPORT, IL, United States (KRFD) 42-12N 89-06W 221M
Jul 13, 2020 - 08:54 AM EDT / 2020.07.13 1254 UTC
Wind: Calm:0
Visibility: 10 mile(s):0
Sky conditions: partly cloudy
Temperature: 69.1 F (20.6 C)
Dew Point: 63.0 F (17.2 C)
Relative Humidity: 80%
Pressure (altimeter): 30.04 in. Hg (1017 hPa)
ob: KRFD 131254Z 00000KT 10SM FEW060 SCT250 21/17 A3004 RMK AO2 SLP167 T02060172
cycle: 13

Station Type Date Time Source
KRFD TAF 2020/07/13 12:24 UTC NOAA

TAF KRFD 131120Z 1312/1412 VRB03KT P6SM FEW250
FM131600 18005KT P6SM BKN045
FM140100 15004KT P6SM FEW050

Example: see airport list